Aviation Digital Data Service (ADDS)

Output produced by METARs form (1656 UTC 25 July 2017)
found at http://aviationweather.gov/adds/metars/
 
KSSI 251135Z 2512/2612 26010KT P6SM SCT020 BKN100 
     FM251700 15009KT P6SM VCTS SCT025 BKN050CB 
     FM252100 17009KT 5SM TSRA BKN040CB OVC250 
     PROB30 2521/2524 VRB20G30KT 1SM +TSRA BKN015CB 
     FM260200 20005KT P6SM VCSH BKN100 OVC250